Time;durP1;ratioP1;P1;durP2;ratioP2;P2;SDS_P1;SDS_P2;PMS_P1;PMS_P2;Temp;Humidity;BMP_temperature;BMP_pressure;BME280_temperature;BME280_humidity;BME280_pressure;Samples;Min_cycle;Max_cycle;Signal;HPM_P1;HPM_P2
2022/11/01 00:01:23;;;;;;;58.72;26.67;;;;;;;12.32;100.00;101116.59;5109609;27;20044;-68
2022/11/01 00:03:48;;;;;;;58.50;28.20;;;;;;;12.31;100.00;101108.63;5128878;27;20182;-69
2022/11/01 00:06:13;;;;;;;54.95;26.60;;;;;;;12.29;100.00;101106.06;5131770;27;20030;-69
2022/11/01 00:08:39;;;;;;;60.08;25.52;;;;;;;12.26;100.00;101094.72;5132020;27;20039;-69
2022/11/01 00:11:09;;;;;;;49.03;22.88;;;;;;;12.26;100.00;101092.91;5131533;27;20034;-69
2022/11/01 00:13:34;;;;;;;52.20;23.35;;;;;;;12.21;100.00;101084.34;5131939;27;20052;-69
2022/11/01 00:16:00;;;;;;;55.58;24.15;;;;;;;12.26;100.00;101092.03;5131058;27;20115;-69
2022/11/01 00:18:25;;;;;;;53.13;25.23;;;;;;;12.24;100.00;101104.75;5129997;27;20038;-69
2022/11/01 00:20:51;;;;;;;58.22;26.92;;;;;;;12.14;100.00;101088.53;5112326;27;20027;-68
2022/11/01 00:23:19;;;;;;;54.92;26.13;;;;;;;12.16;100.00;101097.31;5111122;28;20035;-69
2022/11/01 00:25:45;;;;;;;52.72;24.95;;;;;;;12.11;100.00;101085.22;5109653;28;20028;-69
2022/11/01 00:28:11;;;;;;;70.15;28.50;;;;;;;12.19;100.00;101098.91;5108965;28;20479;-68
2022/11/01 00:30:40;;;;;;;62.33;27.05;;;;;;;11.98;100.00;101060.31;5109106;28;20027;-69
2022/11/01 00:33:07;;;;;;;53.65;26.50;;;;;;;11.96;100.00;101065.81;5108808;28;20471;-68
2022/11/01 00:35:35;;;;;;;58.67;25.58;;;;;;;11.86;100.00;101046.06;5108217;28;20050;-69
2022/11/01 00:38:01;;;;;;;63.83;28.00;;;;;;;11.88;100.00;101044.09;5108848;28;20034;-69
2022/11/01 00:40:28;;;;;;;67.32;28.10;;;;;;;11.74;100.00;101025.56;5110551;28;20501;-67
2022/11/01 00:42:54;;;;;;;59.60;27.10;;;;;;;12.06;100.00;101071.31;5108549;28;20085;-68
2022/11/01 00:45:20;;;;;;;60.63;28.80;;;;;;;12.12;100.00;101087.78;5108974;28;20036;-69
2022/11/01 00:47:47;;;;;;;63.10;27.65;;;;;;;11.52;100.00;100996.84;5107729;28;20092;-68
2022/11/01 00:50:13;;;;;;;67.22;27.83;;;;;;;12.05;100.00;101083.03;5108160;28;20082;-68
2022/11/01 00:52:42;;;;;;;68.43;29.17;;;;;;;12.00;100.00;101074.50;5108781;28;20093;-68
2022/11/01 00:55:08;;;;;;;69.68;28.70;;;;;;;12.06;100.00;101076.69;5110186;28;20024;-68
2022/11/01 00:57:34;;;;;;;58.95;26.92;;;;;;;12.10;100.00;101088.91;5108073;28;20051;-69
2022/11/01 01:00:00;;;;;;;63.05;26.08;;;;;;;12.09;100.00;101095.28;5100963;27;20062;-68
2022/11/01 01:02:25;;;;;;;58.33;26.08;;;;;;;12.09;100.00;101092.59;5101376;27;20093;-69
2022/11/01 01:04:51;;;;;;;66.45;26.85;;;;;;;11.95;100.00;101079.38;5104433;28;20087;-68
2022/11/01 01:07:16;;;;;;;60.53;26.50;;;;;;;12.06;100.00;101100.91;5107511;28;20019;-68
2022/11/01 01:09:42;;;;;;;65.78;27.45;;;;;;;12.03;100.00;101093.91;5107169;28;20019;-69
2022/11/01 01:12:08;;;;;;;57.90;25.48;;;;;;;11.96;100.00;101086.50;5107684;28;20020;-69
2022/11/01 01:14:34;;;;;;;58.58;25.23;;;;;;;12.02;100.00;101096.75;5110194;28;20035;-68
2022/11/01 01:17:00;;;;;;;58.25;26.08;;;;;;;12.01;100.00;101098.56;5108253;28;20034;-69
2022/11/01 01:19:28;;;;;;;58.63;25.75;;;;;;;11.99;100.00;101094.31;5093741;28;20028;-68
2022/11/01 01:21:54;;;;;;;57.97;25.70;;;;;;;11.99;100.00;101095.16;5107156;28;20126;-68
2022/11/01 01:24:19;;;;;;;58.60;25.00;;;;;;;11.98;100.00;101080.00;5110241;28;20107;-68
2022/11/01 01:26:44;;;;;;;61.17;25.98;;;;;;;11.97;100.00;101083.69;5109704;28;20467;-69
2022/11/01 01:29:10;;;;;;;59.60;24.35;;;;;;;12.00;100.00;101077.19;5109725;28;20035;-69
2022/11/01 01:31:35;;;;;;;61.55;25.85;;;;;;;11.98;100.00;101066.56;5109476;28;20019;-68
2022/11/01 01:34:01;;;;;;;53.40;24.80;;;;;;;11.90;100.00;101052.03;5109575;28;20023;-68
2022/11/01 01:36:26;;;;;;;54.55;24.38;;;;;;;11.91;100.00;101057.28;5109778;28;20028;-68
2022/11/01 01:38:52;;;;;;;53.90;25.65;;;;;;;12.00;100.00;101064.63;5109721;28;20042;-69
2022/11/01 01:44:41;;;;;;;56.13;25.38;;;;;;;11.99;100.00;101064.75;5108939;28;20093;-68
2022/11/01 01:47:13;;;;;;;57.53;24.52;;;;;;;11.95;100.00;101061.44;5109164;28;20051;-68
2022/11/01 01:49:39;;;;;;;58.55;26.17;;;;;;;11.80;100.00;101024.22;5109309;28;20036;-69
2022/11/01 01:52:05;;;;;;;56.17;24.35;;;;;;;11.95;100.00;101055.19;5107631;28;20031;-68
2022/11/01 01:54:31;;;;;;;52.40;23.30;;;;;;;11.89;100.00;101040.44;5108020;28;20428;-69
2022/11/01 01:56:57;;;;;;;51.42;23.05;;;;;;;11.99;100.00;101043.22;5109213;28;20367;-68
2022/11/01 01:59:24;;;;;;;53.17;24.50;;;;;;;11.97;100.00;101029.06;5109695;28;20034;-69
2022/11/01 02:01:50;;;;;;;58.53;24.50;;;;;;;11.93;100.00;101030.28;5107676;28;20088;-68
2022/11/01 02:04:27;;;;;;;59.30;24.88;;;;;;;11.95;100.00;101033.69;5107485;28;20501;-69
2022/11/01 02:06:52;;;;;;;50.40;23.88;;;;;;;11.84;100.00;101009.53;5108889;28;20047;-68
2022/11/01 02:09:19;;;;;;;51.75;22.45;;;;;;;11.87;100.00;101022.72;5109287;28;20114;-69
2022/11/01 02:11:44;;;;;;;53.42;23.52;;;;;;;11.95;100.00;101037.25;5107557;28;20026;-68
2022/11/01 02:14:10;;;;;;;53.38;23.05;;;;;;;11.94;100.00;101034.69;5108803;28;20027;-67
2022/11/01 02:16:51;;;;;;;49.63;23.13;;;;;;;11.94;100.00;101040.91;5108956;28;20050;-68
2022/11/01 02:19:35;;;;;;;50.03;23.60;;;;;;;11.94;100.00;101024.78;5107579;28;20407;-68
2022/11/01 02:22:24;;;;;;;53.45;25.05;;;;;;;11.93;100.00;101039.19;5108137;28;20029;-67
2022/11/01 02:25:14;;;;;;;55.75;23.25;;;;;;;11.93;100.00;101032.97;5109009;28;20512;-64
2022/11/01 02:28:21;;;;;;;50.28;24.02;;;;;;;11.91;100.00;101025.03;5108774;28;20015;-64
2022/11/01 02:31:02;;;;;;;51.90;23.60;;;;;;;11.92;100.00;101025.88;5079089;28;20035;-64
2022/11/01 02:33:52;;;;;;;44.75;21.98;;;;;;;11.91;100.00;101018.78;5108097;28;20114;-64
2022/11/01 02:36:31;;;;;;;45.20;21.80;;;;;;;11.89;100.00;101021.59;5108799;28;20085;-64
2022/11/01 02:39:05;;;;;;;42.47;20.00;;;;;;;11.87;100.00;101011.97;5108479;27;20039;-63
2022/11/01 02:42:03;;;;;;;43.47;21.38;;;;;;;11.77;100.00;101003.78;5108865;28;20336;-63
2022/11/01 02:44:34;;;;;;;35.83;19.95;;;;;;;11.81;100.00;101023.22;5107879;28;20085;-63
2022/11/01 02:47:01;;;;;;;41.20;20.38;;;;;;;11.77;100.00;101022.59;5108299;28;20027;-63
2022/11/01 02:49:37;;;;;;;41.53;21.67;;;;;;;11.78;100.00;101018.97;5108293;28;20031;-64
2022/11/01 02:52:06;;;;;;;33.55;17.38;;;;;;;11.83;100.00;101024.78;5106569;28;20118;-64
2022/11/01 02:54:39;;;;;;;37.88;19.75;;;;;;;11.72;100.00;101015.91;5108409;28;20019;-65
2022/11/01 02:57:25;;;;;;;38.33;20.77;;;;;;;11.80;100.00;101035.78;5108260;27;20051;-63
2022/11/01 02:59:50;;;;;;;39.10;20.10;;;;;;;11.78;100.00;101031.53;5107754;28;20470;-63
2022/11/01 03:02:16;;;;;;;42.53;21.65;;;;;;;11.78;100.00;101032.41;5106622;28;20142;-63
2022/11/01 03:04:41;;;;;;;45.45;22.55;;;;;;;11.78;100.00;101032.41;5107769;28;20023;-64
2022/11/01 03:07:11;;;;;;;46.10;23.45;;;;;;;11.73;100.00;101014.94;5106956;28;20035;-64
2022/11/01 03:09:38;;;;;;;42.95;22.20;;;;;;;11.70;100.00;101010.66;5108322;28;20031;-64
2022/11/01 03:12:07;;;;;;;51.92;25.00;;;;;;;11.76;100.00;101020.03;5108186;28;20016;-64
2022/11/01 03:14:43;;;;;;;43.90;23.23;;;;;;;11.77;100.00;101025.28;5108411;28;20016;-64
2022/11/01 03:17:25;;;;;;;45.92;24.17;;;;;;;11.71;100.00;101028.50;5108034;28;20394;-64
2022/11/01 03:19:59;;;;;;;44.15;23.25;;;;;;;11.77;100.00;101044.09;5106964;28;20060;-63
2022/11/01 03:22:43;;;;;;;50.35;24.73;;;;;;;11.74;100.00;101044.38;5106355;28;20533;-64
2022/11/01 03:27:57;;;;;;;44.22;23.27;;;;;;;11.68;100.00;101030.56;5107768;28;20042;-65
2022/11/01 03:30:23;;;;;;;49.63;26.48;;;;;;;11.67;100.00;101031.56;5108316;28;20042;-63
2022/11/01 03:32:53;;;;;;;42.10;23.13;;;;;;;11.77;100.00;101054.84;5108293;28;20028;-64
2022/11/01 03:35:26;;;;;;;49.88;24.77;;;;;;;11.72;100.00;101040.09;5107906;28;20023;-64
2022/11/01 03:37:55;;;;;;;45.88;23.98;;;;;;;11.71;100.00;101050.00;5107860;28;20028;-64
2022/11/01 03:40:23;;;;;;;44.10;23.40;;;;;;;11.70;100.00;101058.19;5108232;28;20089;-64
2022/11/01 03:42:52;;;;;;;45.13;23.75;;;;;;;11.71;100.00;101059.88;5107842;28;20022;-65
2022/11/01 03:45:23;;;;;;;42.97;23.05;;;;;;;11.67;100.00;101059.25;5106063;28;20031;-69
2022/11/01 03:47:49;;;;;;;38.35;21.85;;;;;;;11.51;100.00;101019.31;5107966;28;20027;-68
2022/11/01 03:50:18;;;;;;;43.80;25.08;;;;;;;11.67;100.00;101042.31;5107684;28;20031;-69
2022/11/01 03:52:44;;;;;;;45.67;23.25;;;;;;;11.67;100.00;101037.78;5107617;28;20023;-69
2022/11/01 03:55:19;;;;;;;39.47;23.38;;;;;;;11.66;100.00;101035.22;5107551;28;20682;-68
2022/11/01 03:57:49;;;;;;;43.90;24.05;;;;;;;11.66;100.00;101029.84;5106462;28;20031;-67
2022/11/01 04:00:18;;;;;;;41.22;23.73;;;;;;;11.62;100.00;101025.69;5106604;28;20023;-68
2022/11/01 04:02:43;;;;;;;45.28;24.30;;;;;;;11.65;100.00;101031.69;5106784;28;20505;-68
2022/11/01 04:05:10;;;;;;;50.38;24.17;;;;;;;11.58;100.00;101025.91;5106909;28;20110;-69
2022/11/01 04:07:36;;;;;;;43.83;23.83;;;;;;;11.50;100.00;101012.25;5107822;28;20054;-67
2022/11/01 04:10:02;;;;;;;48.72;25.67;;;;;;;11.60;100.00;101022.25;5107676;28;20550;-69
2022/11/01 04:12:27;;;;;;;42.75;24.55;;;;;;;11.66;100.00;101035.22;5111401;28;20102;-69
2022/11/01 04:20:32;;;;;;;50.30;24.40;;;;;;;11.57;100.00;101008.09;5111441;28;20055;-68
2022/11/01 04:23:03;;;;;;;42.28;23.73;;;;;;;11.64;100.00;101016.53;5110917;28;20062;-69
2022/11/01 04:25:29;;;;;;;43.15;22.67;;;;;;;11.63;100.00;101003.22;5102255;28;20073;-69
2022/11/01 04:27:55;;;;;;;42.53;23.55;;;;;;;11.56;100.00;101005.53;5102708;28;20431;-68
2022/11/01 04:30:25;;;;;;;44.72;24.27;;;;;;;11.50;100.00;100998.81;5104074;28;20054;-68
2022/11/01 04:32:51;;;;;;;41.45;24.67;;;;;;;11.58;100.00;101015.16;5102848;28;20052;-69
2022/11/01 04:35:17;;;;;;;47.95;26.25;;;;;;;11.56;100.00;101016.25;5099318;28;20450;-69
2022/11/01 04:37:42;;;;;;;41.20;23.17;;;;;;;11.54;100.00;101012.84;5100472;28;20498;-68
2022/11/01 04:40:08;;;;;;;40.80;23.15;;;;;;;11.55;100.00;101015.41;5100490;28;20478;-69
2022/11/01 04:42:35;;;;;;;41.08;23.42;;;;;;;11.45;100.00;101003.69;5098830;28;20406;-69
2022/11/01 04:45:01;;;;;;;39.10;22.77;;;;;;;11.45;100.00;101001.00;5102565;28;20085;-69
2022/11/01 04:47:26;;;;;;;41.08;23.02;;;;;;;11.42;100.00;100987.81;5100322;28;20032;-69
2022/11/01 04:49:52;;;;;;;37.30;23.15;;;;;;;11.40;100.00;100987.09;5101134;28;20088;-69
2022/11/01 04:52:18;;;;;;;38.10;21.42;;;;;;;11.33;100.00;100993.97;5098984;28;20020;-67
2022/11/01 04:54:43;;;;;;;37.05;22.30;;;;;;;11.39;100.00;101001.50;5098543;28;20035;-69
2022/11/01 04:57:21;;;;;;;39.75;22.23;;;;;;;11.36;100.00;100996.38;5092748;28;20040;-69
2022/11/01 04:59:48;;;;;;;43.53;23.08;;;;;;;11.32;100.00;100984.16;5108920;28;20492;-69
2022/11/01 05:02:13;;;;;;;35.95;21.52;;;;;;;11.28;100.00;100985.41;5109938;28;20044;-68
2022/11/01 05:04:39;;;;;;;40.45;23.27;;;;;;;11.32;100.00;101002.13;5108917;28;20070;-68
2022/11/01 05:07:04;;;;;;;40.17;23.48;;;;;;;11.31;100.00;101011.16;5109988;28;20111;-68
2022/11/01 05:09:29;;;;;;;40.38;22.75;;;;;;;11.24;100.00;101000.06;5110332;28;20020;-69
2022/11/01 05:11:55;;;;;;;44.97;23.60;;;;;;;11.30;100.00;101002.25;5105743;28;20065;-69
2022/11/01 05:14:20;;;;;;;48.35;25.95;;;;;;;11.27;100.00;101002.50;5089927;28;20448;-68
2022/11/01 05:16:46;;;;;;;47.63;25.20;;;;;;;11.34;100.00;101008.22;5089590;28;20024;-69
2022/11/01 05:19:11;;;;;;;47.65;25.02;;;;;;;11.27;100.00;100998.94;5087436;28;20102;-68
2022/11/01 05:21:36;;;;;;;51.72;27.30;;;;;;;11.24;100.00;101000.06;5089462;28;20420;-69
2022/11/01 05:24:02;;;;;;;52.03;27.52;;;;;;;11.30;100.00;101001.38;5089732;28;20024;-69
2022/11/01 05:26:27;;;;;;;50.05;26.75;;;;;;;11.29;100.00;100999.69;5100688;28;20039;-69
2022/11/01 05:28:53;;;;;;;58.42;29.20;;;;;;;11.37;100.00;101006.16;5114784;27;20027;-69
2022/11/01 05:31:18;;;;;;;52.75;27.42;;;;;;;11.35;100.00;101002.72;5109375;28;20032;-69
2022/11/01 05:33:44;;;;;;;59.33;29.05;;;;;;;11.36;100.00;101000.91;5109539;28;20019;-69
2022/11/01 05:36:09;;;;;;;52.65;28.55;;;;;;;11.35;100.00;100994.66;5109373;28;20027;-69
2022/11/01 05:38:35;;;;;;;55.78;28.70;;;;;;;11.33;100.00;100993.09;5108812;28;20035;-69
2022/11/01 05:41:02;;;;;;;50.15;26.75;;;;;;;11.43;100.00;101004.81;5108792;28;20019;-69
2022/11/01 05:43:27;;;;;;;52.60;26.75;;;;;;;11.40;100.00;101008.59;5107964;28;20422;-69
2022/11/01 05:45:53;;;;;;;55.05;28.25;;;;;;;11.40;100.00;101013.97;5107213;28;20031;-68
2022/11/01 05:48:18;;;;;;;51.00;27.10;;;;;;;11.31;100.00;100998.59;5109371;28;20035;-69
2022/11/01 05:50:45;;;;;;;48.55;25.48;;;;;;;11.31;100.00;101003.97;5107751;28;20410;-68
2022/11/01 05:53:11;;;;;;;51.78;27.20;;;;;;;11.38;100.00;101020.41;5108776;28;20012;-68
2022/11/01 05:55:38;;;;;;;50.92;27.20;;;;;;;11.29;100.00;100999.69;5107312;28;20020;-69
2022/11/01 05:58:04;;;;;;;53.60;26.83;;;;;;;11.38;100.00;101017.72;5107056;28;20382;-69
2022/11/01 06:25:27;;;;;;;45.53;28.33;;;;;;;11.30;100.00;100994.19;6140169;22;1314552;-66
2022/11/01 06:27:53;;;;;;;51.20;28.58;;;;;;;11.54;100.00;101037.88;6184546;23;20037;-66
2022/11/01 06:30:19;;;;;;;50.15;27.60;;;;;;;11.50;100.00;101039.13;6183853;23;20008;-66
2022/11/01 06:32:45;;;;;;;45.58;27.50;;;;;;;11.49;100.00;101037.38;6184125;23;20012;-66
2022/11/01 06:35:10;;;;;;;52.47;28.83;;;;;;;11.37;100.00;101016.03;6182904;23;20345;-67
2022/11/01 06:37:37;;;;;;;50.15;27.13;;;;;;;11.31;100.00;101017.38;6185179;23;20207;-68
2022/11/01 06:40:03;;;;;;;45.53;26.85;;;;;;;11.30;100.00;101015.69;6184969;23;20426;-68
2022/11/01 06:42:29;;;;;;;61.88;31.90;;;;;;;11.37;100.00;101022.28;6184669;23;20013;-68
2022/11/01 06:44:54;;;;;;;55.05;29.35;;;;;;;11.27;100.00;101009.69;6183462;23;20363;-66
2022/11/01 06:47:19;;;;;;;60.88;31.83;;;;;;;11.20;100.00;100985.19;6184191;23;20011;-67
2022/11/01 06:49:45;;;;;;;51.42;28.70;;;;;;;11.47;100.00;101030.44;6182893;23;20043;-68
2022/11/01 06:52:10;;;;;;;56.92;30.08;;;;;;;11.40;100.00;101015.78;6184956;23;20015;-66
2022/11/01 06:54:36;;;;;;;56.78;30.52;;;;;;;11.46;100.00;101026.91;6184678;23;20054;-69
2022/11/01 06:57:01;;;;;;;62.08;30.77;;;;;;;11.37;100.00;101010.66;6183782;23;20005;-66
2022/11/01 06:59:27;;;;;;;60.47;31.83;;;;;;;11.44;100.00;101028.84;6184355;23;20024;-68
2022/11/01 07:01:53;;;;;;;63.85;31.23;;;;;;;11.49;100.00;101033.88;6182039;23;20036;-67
2022/11/01 07:04:20;;;;;;;56.58;30.80;;;;;;;11.43;100.00;101037.03;6184700;23;20012;-67
2022/11/01 07:06:46;;;;;;;55.38;30.13;;;;;;;11.48;100.00;101038.38;6184569;23;20004;-65
2022/11/01 07:09:12;;;;;;;49.17;28.42;;;;;;;11.41;100.00;101026.41;6182273;23;20013;-67
2022/11/01 07:11:38;;;;;;;47.53;26.42;;;;;;;11.48;100.00;101042.88;6181726;23;20009;-67
2022/11/01 07:14:03;;;;;;;48.03;26.13;;;;;;;11.36;100.00;101023.22;6183590;23;20001;-66
2022/11/01 07:16:29;;;;;;;50.83;26.65;;;;;;;11.46;100.00;101045.72;6184356;23;20005;-67
2022/11/01 07:18:55;;;;;;;53.75;27.60;;;;;;;11.31;100.00;101020.06;6184594;23;20087;-67
2022/11/01 07:21:20;;;;;;;47.60;25.77;;;;;;;11.49;100.00;101036.53;6184507;23;20013;-67
2022/11/01 07:23:46;;;;;;;50.83;27.58;;;;;;;11.51;100.00;101031.88;6184672;23;20054;-67
2022/11/01 07:26:11;;;;;;;50.50;28.00;;;;;;;11.49;100.00;101025.81;6178265;23;20009;-67
2022/11/01 07:28:38;;;;;;;46.53;26.35;;;;;;;11.55;100.00;101028.84;6150676;22;20103;-67
2022/11/01 07:31:04;;;;;;;49.08;26.63;;;;;;;11.45;100.00;101011.75;6177199;23;20485;-67
2022/11/01 07:33:29;;;;;;;49.08;26.42;;;;;;;11.27;100.00;100981.03;6177546;23;20021;-67
2022/11/01 07:35:55;;;;;;;47.20;26.25;;;;;;;11.57;100.00;101021.53;6177857;23;20001;-66
2022/11/01 07:38:20;;;;;;;57.13;27.55;;;;;;;11.43;100.00;100991.38;6150982;22;20016;-67
2022/11/01 07:40:48;;;;;;;51.17;26.70;;;;;;;11.61;100.00;101011.38;6177463;23;20080;-67
2022/11/01 07:43:16;;;;;;;46.05;26.45;;;;;;;11.63;100.00;101014.81;6150781;23;20012;-66
2022/11/01 07:45:42;;;;;;;54.05;26.73;;;;;;;11.50;100.00;100993.44;6176976;23;20416;-67
2022/11/01 07:48:10;;;;;;;51.75;28.00;;;;;;;11.64;100.00;101011.16;6172851;22;20009;-67
2022/11/01 07:50:38;;;;;;;45.50;26.67;;;;;;;11.71;100.00;101004.31;6176416;23;20013;-67
2022/11/01 07:53:12;;;;;;;49.55;27.55;;;;;;;11.71;100.00;101003.44;6177028;23;20012;-67
2022/11/01 07:55:38;;;;;;;47.88;27.20;;;;;;;11.71;100.00;101011.50;6150343;23;20012;-66
2022/11/01 07:58:04;;;;;;;43.58;25.63;;;;;;;11.72;100.00;101015.91;6177267;23;20062;-67
2022/11/01 08:00:30;;;;;;;47.80;27.48;;;;;;;11.69;100.00;100997.34;6176713;23;20166;-67
2022/11/01 08:03:11;;;;;;;41.60;25.73;;;;;;;11.75;100.00;101012.97;6177251;23;20409;-65
2022/11/01 08:05:37;;;;;;;39.25;24.10;;;;;;;11.70;100.00;100996.38;6177108;23;20116;-67
2022/11/01 08:08:04;;;;;;;48.45;26.75;;;;;;;11.81;100.00;101004.41;6176865;23;20005;-68
2022/11/01 08:10:30;;;;;;;43.58;24.33;;;;;;;11.83;100.00;101013.22;6176617;23;20054;-67
2022/11/01 08:13:07;;;;;;;46.65;25.88;;;;;;;11.73;100.00;100998.81;6171679;23;20031;-67
2022/11/01 08:15:33;;;;;;;42.90;24.55;;;;;;;11.70;100.00;100994.53;6177159;23;20004;-67
2022/11/01 08:17:59;;;;;;;40.80;24.95;;;;;;;11.83;100.00;101015.91;6177060;23;20073;-66
2022/11/01 08:20:26;;;;;;;37.28;22.80;;;;;;;11.82;100.00;101016.84;6176311;23;20062;-67
2022/11/01 08:22:52;;;;;;;39.08;23.38;;;;;;;11.82;100.00;101009.66;6149965;23;20016;-66
2022/11/01 08:25:19;;;;;;;38.70;23.50;;;;;;;11.82;100.00;101008.78;6177025;23;20024;-66
2022/11/01 08:27:45;;;;;;;41.58;24.88;;;;;;;11.76;100.00;101002.09;6150881;23;20103;-66
2022/11/01 08:30:12;;;;;;;39.90;23.77;;;;;;;11.76;100.00;100993.16;6150763;23;20005;-66
2022/11/01 08:32:37;;;;;;;44.47;25.05;;;;;;;11.83;100.00;100999.78;6175826;23;20028;-66
2022/11/01 08:35:03;;;;;;;39.05;24.00;;;;;;;11.80;100.00;100989.28;6174161;23;20008;-67
2022/11/01 08:37:28;;;;;;;38.85;24.25;;;;;;;11.91;100.00;101003.53;6177528;23;20005;-76
2022/11/01 08:39:54;;;;;;;42.53;25.40;;;;;;;11.91;100.00;101010.72;6151653;23;20005;-76
2022/11/01 08:42:19;;;;;;;42.15;25.65;;;;;;;11.92;100.00;101007.06;6176686;23;20012;-75
2022/11/01 08:44:45;;;;;;;47.70;26.80;;;;;;;11.88;100.00;100997.53;6177160;23;20001;-74
2022/11/01 08:47:11;;;;;;;39.92;24.75;;;;;;;11.98;100.00;101003.88;6177315;23;20013;-75
2022/11/01 08:49:36;;;;;;;45.72;26.67;;;;;;;11.98;100.00;101006.56;6151132;22;20001;-76
2022/11/01 08:52:02;;;;;;;42.40;26.45;;;;;;;11.96;100.00;101001.31;6177788;23;20016;-75
2022/11/01 08:54:28;;;;;;;44.70;25.90;;;;;;;11.81;100.00;100964.09;6178021;23;19997;-76
2022/11/01 08:56:53;;;;;;;44.42;26.10;;;;;;;11.95;100.00;100985.28;6178073;23;20005;-76
2022/11/01 08:59:19;;;;;;;42.67;27.45;;;;;;;11.99;100.00;100990.28;6178107;23;20005;-75
2022/11/01 09:01:45;;;;;;;39.03;24.65;;;;;;;12.06;100.00;100996.88;6177922;23;20009;-75
2022/11/01 09:04:11;;;;;;;43.20;26.80;;;;;;;12.11;100.00;101001.88;6151615;23;20088;-75
2022/11/01 09:06:37;;;;;;;40.03;25.15;;;;;;;12.08;100.00;100997.59;6178207;23;20080;-75
2022/11/01 09:09:03;;;;;;;47.08;28.45;;;;;;;12.11;100.00;101004.56;6178108;23;20033;-75
2022/11/01 09:11:29;;;;;;;47.33;28.42;;;;;;;12.02;100.00;100994.59;6177930;23;20009;-75
2022/11/01 09:13:56;;;;;;;47.55;28.45;;;;;;;12.18;100.00;101008.44;6178274;23;20038;-75
2022/11/01 09:16:22;;;;;;;43.20;26.95;;;;;;;12.12;100.00;101008.97;6178001;23;20005;-74
2022/11/01 09:18:48;;;;;;;46.45;28.33;;;;;;;12.17;100.00;101012.97;6177999;23;20383;-75
2022/11/01 09:21:14;;;;;;;46.60;28.10;;;;;;;12.21;100.00;101008.19;6177831;23;20017;-74
2022/11/01 09:23:39;;;;;;;47.17;28.35;;;;;;;12.19;100.00;101008.31;6151308;23;20126;-73
2022/11/01 09:26:07;;;;;;;51.42;29.58;;;;;;;12.22;100.00;101008.06;6177969;23;20024;-75
2022/11/01 09:28:33;;;;;;;47.42;28.38;;;;;;;12.32;100.00;101008.16;6177690;23;20037;-75
2022/11/01 09:31:03;;;;;;;65.18;34.15;;;;;;;12.23;100.00;100995.47;6151458;23;20062;-75
2022/11/01 09:33:29;;;;;;;54.25;31.45;;;;;;;12.20;100.00;100982.28;6177403;22;19997;-74
2022/11/01 09:35:54;;;;;;;49.17;30.35;;;;;;;12.32;100.00;101005.47;6177586;22;20001;-75
2022/11/01 09:38:20;;;;;;;49.38;30.83;;;;;;;12.36;100.00;100998.84;6176319;23;20007;-74
2022/11/01 09:40:55;;;;;;;51.13;31.58;;;;;;;12.38;100.00;100997.72;6174045;23;20005;-74
2022/11/01 09:43:23;;;;;;;50.13;34.15;;;;;;;12.35;100.00;100971.06;6173530;22;20024;-74
2022/11/01 09:45:53;;;;;;;55.75;34.95;;;;;;;12.41;100.00;100973.25;6148818;23;20392;-74
2022/11/01 09:48:20;;;;;;;55.00;34.13;;;;;;;12.44;100.00;100972.97;6150016;23;20021;-75
2022/11/01 09:50:45;;;;;;;51.45;33.10;;;;;;;12.59;100.00;100990.53;6176569;22;20799;-74
2022/11/01 09:53:24;;;;;;;56.47;35.45;;;;;;;12.63;100.00;100986.56;6177282;22;20001;-74
2022/11/01 09:56:18;;;;;;;54.22;34.30;;;;;;;12.65;100.00;100989.13;6176713;23;20005;-74
2022/11/01 09:59:02;;;;;;;56.67;36.63;;;;;;;12.71;100.00;100991.31;6176325;23;20009;-74
2022/11/01 10:01:30;;;;;;;63.83;38.22;;;;;;;12.73;100.00;101000.94;6174494;23;20005;-74
2022/11/01 10:04:04;;;;;;;59.40;38.28;;;;;;;12.78;100.00;101000.56;6149050;23;20008;-75
2022/11/01 10:06:37;;;;;;;;;;;;;;;12.77;100.00;100999.69;6149957;23;20091;-75
2022/11/01 10:09:06;;;;;;;64.45;37.70;;;;;;;12.73;100.00;100983.94;6149289;23;19908;-74
2022/11/01 10:11:55;;;;;;;64.80;38.53;;;;;;;12.84;100.00;100997.34;6148906;22;20384;-74
2022/11/01 10:14:44;;;;;;;61.80;39.33;;;;;;;12.85;100.00;100991.81;6175694;23;19997;-74
2022/11/01 10:17:13;;;;;;;58.08;37.50;;;;;;;12.87;100.00;100991.69;6174273;23;20073;-74
2022/11/01 10:19:44;;;;;;;59.50;38.47;;;;;;;12.80;100.00;100979.75;6149267;23;20043;-74
2022/11/01 10:22:17;;;;;;;59.47;39.55;;;;;;;12.87;100.00;100979.06;6175634;23;20024;-75
2022/11/01 10:24:56;;;;;;;55.60;38.38;;;;;;;13.00;100.00;100995.06;6157156;23;20102;-74
2022/11/01 10:27:31;;;;;;;64.18;39.60;;;;;;;12.97;100.00;100982.66;6175792;23;20094;-75
2022/11/01 10:30:02;;;;;;;57.53;37.38;;;;;;;13.08;100.00;100987.16;6175293;23;20082;-75
2022/11/01 10:32:39;;;;;;;59.15;38.97;;;;;;;13.11;100.00;100992.28;6175445;23;20332;-74
2022/11/01 10:35:44;;;;;;;68.50;42.90;;;;;;;13.14;100.00;100978.53;6175634;23;20012;-74
2022/11/01 10:38:39;;;;;;;68.22;44.33;;;;;;;13.16;100.00;100977.41;6162389;23;20425;-74
2022/11/01 10:41:19;;;;;;;67.85;42.28;;;;;;;13.16;100.00;100969.31;6173854;23;20001;-74
2022/11/01 10:43:48;;;;;;;71.63;44.35;;;;;;;13.14;100.00;100959.69;6173475;23;20013;-74
2022/11/01 10:46:22;;;;;;;69.93;42.90;;;;;;;13.22;100.00;100971.47;6174795;23;20072;-66
2022/11/01 10:48:53;;;;;;;65.32;43.10;;;;;;;13.30;100.00;100985.16;6174911;23;20044;-66
2022/11/01 10:51:23;;;;;;;66.85;43.45;;;;;;;13.22;100.00;100957.19;6174625;23;20009;-67
2022/11/01 10:53:53;;;;;;;63.60;41.53;;;;;;;13.28;100.00;100962.00;6174678;23;20333;-67
2022/11/01 10:56:27;;;;;;;65.30;43.55;;;;;;;13.39;100.00;100970.00;6174719;23;20002;-67
2022/11/01 10:59:15;;;;;;;66.53;42.53;;;;;;;13.39;100.00;100961.91;6174096;23;20012;-67
2022/11/01 11:01:42;;;;;;;67.82;42.65;;;;;;;13.39;100.00;100960.06;6175354;23;20971;-67
2022/11/01 11:04:14;;;;;;;63.88;43.47;;;;;;;13.39;100.00;100960.06;6174376;23;20080;-67
2022/11/01 11:06:41;;;;;;;70.25;47.72;;;;;;;13.47;100.00;100960.22;6174617;23;20028;-67
2022/11/01 11:09:22;;;;;;;71.85;45.63;;;;;;;13.42;100.00;100942.78;6175809;23;20005;-67
2022/11/01 11:11:52;;;;;;;75.65;48.72;;;;;;;13.55;100.00;100955.00;6175524;23;20729;-66
2022/11/01 11:14:19;;;;;;;72.85;46.97;;;;;;;13.55;100.00;100951.47;6175606;23;20036;-66
2022/11/01 11:16:54;;;;;;;70.15;46.20;;;;;;;13.60;100.00;100951.88;6173633;23;20036;-66
2022/11/01 11:19:30;;;;;;;76.72;49.05;;;;;;;13.58;100.00;100945.81;6174868;23;20009;-67
2022/11/01 11:21:57;;;;;;;76.85;47.13;;;;;;;13.62;100.00;100941.81;6175578;23;20005;-66
2022/11/01 11:24:56;;;;;;;83.45;55.78;;;;;;;13.68;100.00;100938.59;6174522;23;20020;-67
2022/11/01 11:27:26;;;;;;;83.75;53.65;;;;;;;13.71;100.00;100932.91;6159869;23;20011;-74
2022/11/01 11:30:05;;;;;;;78.22;49.17;;;;;;;13.64;100.00;100918.25;6174503;23;20372;-74
2022/11/01 11:32:37;;;;;;;69.32;47.03;;;;;;;13.81;100.00;100939.16;6173127;23;20005;-75
2022/11/01 11:35:12;;;;;;;72.20;47.67;;;;;;;13.78;100.00;100928.66;6174266;23;20070;-74
2022/11/01 11:37:38;;;;;;;77.95;49.60;;;;;;;13.73;100.00;100914.72;6174386;23;20055;-75
2022/11/01 11:40:18;;;;;;;69.88;47.70;;;;;;;13.79;100.00;100916.88;6174394;23;20074;-75
2022/11/01 11:42:47;;;;;;;76.38;50.35;;;;;;;13.68;100.00;100900.84;6175883;23;20001;-75
2022/11/01 11:45:28;;;;;;;74.15;48.80;;;;;;;13.92;100.00;100922.84;6175557;23;20085;-75
2022/11/01 11:47:56;;;;;;;69.18;45.05;;;;;;;13.99;100.00;100921.28;6174527;23;20062;-75